createdAt,value
2018-07-12T00:01:27.400Z,17.87
2018-07-12T00:03:54.653Z,17.89
2018-07-12T00:06:21.945Z,17.92
2018-07-12T00:08:49.201Z,17.94
2018-07-12T00:11:16.450Z,17.97
2018-07-12T00:13:43.693Z,17.99
2018-07-12T00:16:11.108Z,17.98
2018-07-12T00:18:38.368Z,17.96
2018-07-12T00:21:05.620Z,17.96
2018-07-12T00:23:43.664Z,17.97
2018-07-12T00:26:10.917Z,17.99
2018-07-12T00:28:38.277Z,18.02
2018-07-12T00:31:05.525Z,18.04
2018-07-12T00:33:32.772Z,18.03
2018-07-12T00:36:00.133Z,18.03
2018-07-12T00:38:27.388Z,18.04
2018-07-12T00:40:54.632Z,18.04
2018-07-12T00:43:21.864Z,18.02
2018-07-12T00:45:49.110Z,18.04
2018-07-12T00:48:16.365Z,18.06
2018-07-12T00:50:43.617Z,18.06
2018-07-12T00:53:10.872Z,18.05
2018-07-12T00:55:38.164Z,18.04
2018-07-12T00:58:05.404Z,18.05
2018-07-12T01:00:32.659Z,18.04
2018-07-12T01:02:59.905Z,18.04
2018-07-12T01:05:27.330Z,18.02
2018-07-12T01:07:54.583Z,18.01
2018-07-12T01:10:21.835Z,18.00
2018-07-12T01:12:49.077Z,18.00
2018-07-12T01:15:16.391Z,18.00
2018-07-12T01:17:43.648Z,18.01
2018-07-12T01:20:10.888Z,17.99
2018-07-12T01:22:38.170Z,18.00
2018-07-12T01:25:05.430Z,17.99
2018-07-12T01:27:32.673Z,17.98
2018-07-12T01:29:59.962Z,17.97
2018-07-12T01:32:27.191Z,17.95
2018-07-12T01:34:54.442Z,17.94
2018-07-12T01:37:21.764Z,17.91
2018-07-12T01:39:49.032Z,17.88
2018-07-12T01:42:16.438Z,17.87
2018-07-12T01:44:43.745Z,17.83
2018-07-12T01:47:10.981Z,17.80
2018-07-12T01:49:38.344Z,17.77
2018-07-12T01:52:05.588Z,17.72
2018-07-12T01:54:32.842Z,17.71
2018-07-12T01:57:00.153Z,17.67
2018-07-12T01:59:27.417Z,17.63
2018-07-12T02:01:54.692Z,17.60
2018-07-12T02:04:21.929Z,17.57
2018-07-12T02:06:49.179Z,17.56
2018-07-12T02:09:16.439Z,17.56
2018-07-12T02:11:43.726Z,17.55
2018-07-12T02:14:25.982Z,17.55
2018-07-12T02:16:53.257Z,17.52
2018-07-12T02:19:20.525Z,17.49
2018-07-12T02:21:47.770Z,17.44
2018-07-12T02:24:15.140Z,17.36
2018-07-12T02:26:42.407Z,17.32
2018-07-12T02:29:09.643Z,17.27
2018-07-12T02:31:36.893Z,17.19
2018-07-12T02:34:04.997Z,17.15
2018-07-12T02:36:32.251Z,17.06
2018-07-12T02:38:59.522Z,17.02
2018-07-12T02:41:26.885Z,16.98
2018-07-12T02:43:54.138Z,16.92
2018-07-12T02:46:21.413Z,16.85
2018-07-12T02:48:48.653Z,16.73
2018-07-12T02:51:15.916Z,16.65
2018-07-12T02:53:43.204Z,16.62
2018-07-12T02:56:10.453Z,16.58
2018-07-12T02:58:37.804Z,16.53
2018-07-12T03:01:05.053Z,16.48
2018-07-12T03:03:32.302Z,16.42
2018-07-12T03:05:59.579Z,16.32
2018-07-12T03:08:26.809Z,16.27
2018-07-12T03:10:54.065Z,16.21
2018-07-12T03:13:21.314Z,16.16
2018-07-12T03:15:48.577Z,16.09
2018-07-12T03:18:15.825Z,16.03
2018-07-12T03:20:43.069Z,15.96
2018-07-12T03:23:10.332Z,15.91
2018-07-12T03:25:37.642Z,15.86
2018-07-12T03:28:04.936Z,15.80
2018-07-12T03:30:32.174Z,15.74
2018-07-12T03:32:59.437Z,15.72
2018-07-12T03:35:26.681Z,15.65
2018-07-12T03:37:53.968Z,15.60
2018-07-12T03:40:21.257Z,15.54
2018-07-12T03:42:48.473Z,15.52
2018-07-12T03:45:15.833Z,15.53
2018-07-12T03:47:43.084Z,15.52
2018-07-12T03:50:10.323Z,15.48
2018-07-12T03:52:37.559Z,15.52
2018-07-12T03:55:04.808Z,15.49
2018-07-12T03:57:32.050Z,15.46
2018-07-12T03:59:59.296Z,15.42
2018-07-12T04:02:26.529Z,15.46
2018-07-12T04:04:53.781Z,15.49
2018-07-12T04:07:21.025Z,15.54
2018-07-12T04:09:48.280Z,15.57
2018-07-12T04:12:15.612Z,15.64
2018-07-12T04:14:42.948Z,15.66
2018-07-12T04:17:10.411Z,15.66
2018-07-12T04:19:37.653Z,15.64
2018-07-12T04:22:04.912Z,15.61
2018-07-12T04:24:32.157Z,15.59
2018-07-12T04:27:31.434Z,15.59
2018-07-12T04:29:59.817Z,15.64
2018-07-12T04:32:27.265Z,15.82
2018-07-12T04:34:54.743Z,16.14
2018-07-12T04:37:21.989Z,16.54
2018-07-12T04:39:49.238Z,16.79
2018-07-12T04:42:16.483Z,16.84
2018-07-12T04:44:43.794Z,16.77
2018-07-12T04:47:11.041Z,16.71
2018-07-12T04:49:41.951Z,16.69
2018-07-12T04:52:09.186Z,16.64
2018-07-12T04:54:36.516Z,16.64
2018-07-12T04:57:03.840Z,16.62
2018-07-12T04:59:31.105Z,16.62
2018-07-12T05:01:58.337Z,16.64
2018-07-12T05:04:25.580Z,16.69
2018-07-12T05:06:52.949Z,16.72
2018-07-12T05:09:20.213Z,16.69
2018-07-12T05:11:47.471Z,16.72
2018-07-12T05:14:14.721Z,16.79
2018-07-12T05:16:42.752Z,16.80
2018-07-12T05:19:09.996Z,16.82
2018-07-12T05:21:37.301Z,16.92
2018-07-12T05:24:04.533Z,16.94
2018-07-12T05:26:31.783Z,16.96
2018-07-12T05:28:59.064Z,16.99
2018-07-12T05:31:26.339Z,16.99
2018-07-12T05:33:53.589Z,16.97
2018-07-12T05:36:59.498Z,17.02
2018-07-12T05:39:43.156Z,17.05
2018-07-12T05:42:11.694Z,17.13
2018-07-12T05:44:40.171Z,17.20
2018-07-12T05:47:08.647Z,17.24
2018-07-12T05:49:37.129Z,17.32
2018-07-12T05:52:05.719Z,17.34
2018-07-12T05:54:34.298Z,17.41
2018-07-12T05:57:02.724Z,17.49
2018-07-12T05:59:31.364Z,17.56
2018-07-12T06:02:11.175Z,17.68
2018-07-12T06:04:39.705Z,17.72
2018-07-12T06:07:08.161Z,17.85
2018-07-12T06:09:36.565Z,17.85
2018-07-12T06:12:05.148Z,17.83
2018-07-12T06:14:33.615Z,17.90
2018-07-12T06:17:02.176Z,18.00
2018-07-12T06:19:30.672Z,18.15
2018-07-12T06:21:59.511Z,18.20
2018-07-12T06:24:28.211Z,18.34
2018-07-12T06:26:56.669Z,18.48
2018-07-12T06:29:25.125Z,18.51
2018-07-12T06:31:53.621Z,18.54
2018-07-12T06:34:22.113Z,18.71
2018-07-12T06:36:50.636Z,18.77
2018-07-12T06:39:19.221Z,18.86
2018-07-12T06:41:47.854Z,18.93
2018-07-12T06:44:16.425Z,18.94
2018-07-12T06:46:44.927Z,19.03
2018-07-12T06:49:13.402Z,19.09
2018-07-12T06:51:41.870Z,19.07
2018-07-12T06:54:10.311Z,19.05
2018-07-12T06:56:38.818Z,19.08
2018-07-12T06:59:07.378Z,19.15
2018-07-12T07:01:35.898Z,19.29
2018-07-12T07:04:04.340Z,19.25
2018-07-12T07:06:32.929Z,19.26
2018-07-12T07:09:01.561Z,19.37
2018-07-12T07:11:30.133Z,19.37
2018-07-12T07:13:58.663Z,19.46
2018-07-12T07:16:27.111Z,19.50
2018-07-12T07:18:55.616Z,19.56
2018-07-12T07:21:24.176Z,19.61
2018-07-12T07:23:52.613Z,19.66
2018-07-12T07:26:21.152Z,19.77
2018-07-12T07:28:50.123Z,19.72
2018-07-12T07:31:18.622Z,19.56
2018-07-12T07:33:47.202Z,19.49
2018-07-12T07:36:15.705Z,19.49
2018-07-12T07:38:44.269Z,19.38
2018-07-12T07:41:12.834Z,19.27
2018-07-12T07:43:41.337Z,19.24
2018-07-12T07:46:09.924Z,19.25
2018-07-12T07:48:38.399Z,19.35
2018-07-12T07:51:07.086Z,19.53
2018-07-12T07:53:35.661Z,19.75
2018-07-12T07:56:04.256Z,19.97
2018-07-12T07:58:32.823Z,20.09
2018-07-12T08:01:01.336Z,20.11
2018-07-12T08:03:30.001Z,20.32
2018-07-12T08:05:58.576Z,20.59
2018-07-12T08:08:27.104Z,20.73
2018-07-12T08:10:55.946Z,20.76
2018-07-12T08:13:24.491Z,20.75
2018-07-12T08:15:53.017Z,20.58
2018-07-12T08:18:21.467Z,20.48
2018-07-12T08:20:50.092Z,20.43
2018-07-12T08:23:18.570Z,20.52
2018-07-12T08:25:47.054Z,20.60
2018-07-12T08:28:26.837Z,20.64
2018-07-12T08:30:55.597Z,20.80
2018-07-12T08:33:24.535Z,21.00
2018-07-12T08:35:52.958Z,21.16
2018-07-12T08:38:21.648Z,21.38
2018-07-12T08:40:50.122Z,21.53
2018-07-12T08:43:18.588Z,21.54
2018-07-12T08:45:47.028Z,21.55
2018-07-12T08:48:15.627Z,21.43
2018-07-12T08:50:44.104Z,21.39
2018-07-12T08:53:12.988Z,21.38
2018-07-12T08:55:41.432Z,21.44
2018-07-12T08:58:09.924Z,21.31
2018-07-12T09:00:38.409Z,21.28
2018-07-12T09:03:07.091Z,21.49
2018-07-12T09:05:35.649Z,21.68
2018-07-12T09:08:04.125Z,21.70
2018-07-12T09:10:32.654Z,21.58
2018-07-12T09:13:01.188Z,21.53
2018-07-12T09:15:29.667Z,21.60
2018-07-12T09:17:58.144Z,21.75
2018-07-12T09:20:26.681Z,21.83
2018-07-12T09:22:55.243Z,21.92
2018-07-12T09:25:23.906Z,22.02
2018-07-12T09:27:52.397Z,22.17
2018-07-12T09:30:20.992Z,22.33
2018-07-12T09:36:21.041Z,22.63
2018-07-12T09:38:50.655Z,22.60
2018-07-12T09:41:19.837Z,22.64
2018-07-12T09:43:48.931Z,22.67
2018-07-12T09:46:17.621Z,22.71
2018-07-12T09:48:47.636Z,22.87
2018-07-12T09:51:16.354Z,23.01
2018-07-12T09:53:45.740Z,22.97
2018-07-12T09:56:14.378Z,22.92
2018-07-12T09:58:43.010Z,23.06
2018-07-12T10:01:16.967Z,23.13
2018-07-12T10:03:47.267Z,23.25
2018-07-12T10:06:21.113Z,23.35
2018-07-12T10:08:54.921Z,23.50
2018-07-12T10:11:28.676Z,23.66
2018-07-12T10:14:02.526Z,23.91
2018-07-12T10:16:36.395Z,24.17
2018-07-12T10:19:04.969Z,24.28
2018-07-12T10:21:33.542Z,24.11
2018-07-12T10:24:02.037Z,24.18
2018-07-12T10:26:30.598Z,24.42
2018-07-12T10:28:59.071Z,24.77
2018-07-12T10:31:27.516Z,25.10
2018-07-12T10:33:55.946Z,25.38
2018-07-12T10:36:24.533Z,25.14
2018-07-12T10:38:53.117Z,24.76
2018-07-12T10:41:21.785Z,24.47
2018-07-12T10:43:50.277Z,24.44
2018-07-12T10:46:18.771Z,24.67
2018-07-12T10:48:47.238Z,24.95
2018-07-12T10:51:15.692Z,25.31
2018-07-12T10:53:44.299Z,25.57
2018-07-12T10:56:12.781Z,25.67
2018-07-12T10:58:41.269Z,25.46
2018-07-12T11:01:09.774Z,25.34
2018-07-12T11:03:38.320Z,25.50
2018-07-12T11:06:06.772Z,25.62
2018-07-12T11:08:35.233Z,25.95
2018-07-12T11:11:03.917Z,26.22
2018-07-12T11:13:43.589Z,26.30
2018-07-12T11:16:12.100Z,26.51
2018-07-12T11:18:40.557Z,26.72
2018-07-12T11:21:09.041Z,26.58
2018-07-12T11:23:37.555Z,26.41
2018-07-12T11:26:06.141Z,26.77
2018-07-12T11:28:34.615Z,27.16
2018-07-12T11:31:03.209Z,27.01
2018-07-12T11:33:38.075Z,27.16
2018-07-12T11:36:07.143Z,27.37
2018-07-12T11:38:37.231Z,27.96
2018-07-12T11:41:05.925Z,28.29
2018-07-12T11:43:34.443Z,28.82
2018-07-12T11:46:04.409Z,28.96
2018-07-12T11:48:33.918Z,28.38
2018-07-12T11:51:02.413Z,27.53
2018-07-12T11:53:30.924Z,27.62
2018-07-12T11:55:59.450Z,28.55
2018-07-12T11:58:28.048Z,28.90
2018-07-12T12:00:57.546Z,28.28
2018-07-12T12:03:26.628Z,27.67
2018-07-12T12:05:55.132Z,28.35
2018-07-12T12:08:24.145Z,29.45
2018-07-12T12:10:52.577Z,29.47
2018-07-12T12:13:21.077Z,30.06
2018-07-12T12:15:49.577Z,29.59
2018-07-12T12:18:18.060Z,28.80
2018-07-12T12:20:46.637Z,29.22
2018-07-12T12:23:15.116Z,28.71
2018-07-12T12:25:43.810Z,28.74
2018-07-12T12:28:12.392Z,29.60
2018-07-12T12:30:40.913Z,30.46
2018-07-12T12:33:09.357Z,31.18
2018-07-12T12:35:37.987Z,31.82
2018-07-12T12:38:06.504Z,32.32
2018-07-12T12:40:34.980Z,32.47
2018-07-12T12:43:03.576Z,32.58
2018-07-12T12:45:32.064Z,32.02
2018-07-12T12:48:00.618Z,30.95
2018-07-12T12:50:29.127Z,30.80
2018-07-12T12:52:57.593Z,30.18
2018-07-12T12:55:26.097Z,29.36
2018-07-12T12:57:54.604Z,28.87
2018-07-12T13:00:23.136Z,28.66
2018-07-12T13:02:51.717Z,29.84
2018-07-12T13:05:20.198Z,30.91
2018-07-12T13:07:48.657Z,30.59
2018-07-12T13:10:17.229Z,29.85
2018-07-12T13:12:45.745Z,29.23
2018-07-12T13:15:14.241Z,28.64
2018-07-12T13:17:42.722Z,29.26
2018-07-12T13:20:11.315Z,30.06
2018-07-12T13:22:39.881Z,30.70
2018-07-12T13:25:10.660Z,31.29
2018-07-12T13:27:40.670Z,31.80
2018-07-12T13:30:11.568Z,31.98
2018-07-12T13:32:42.560Z,32.28
2018-07-12T13:35:12.576Z,31.68
2018-07-12T13:37:45.074Z,30.75
2018-07-12T13:40:15.572Z,29.80
2018-07-12T13:42:46.545Z,29.53
2018-07-12T13:45:17.233Z,29.98
2018-07-12T13:47:49.166Z,30.71
2018-07-12T13:50:19.398Z,31.11
2018-07-12T13:52:50.327Z,31.20
2018-07-12T13:55:20.989Z,30.23
2018-07-12T13:57:51.935Z,29.38
2018-07-12T14:00:20.769Z,28.85
2018-07-12T14:02:49.565Z,28.38
2018-07-12T14:05:18.057Z,27.97
2018-07-12T14:07:46.632Z,27.77
2018-07-12T14:10:15.174Z,27.58
2018-07-12T14:12:43.634Z,27.41
2018-07-12T14:15:12.191Z,27.32
2018-07-12T14:17:40.741Z,27.24
2018-07-12T14:20:09.231Z,27.13
2018-07-12T14:22:37.732Z,27.04
2018-07-12T14:25:06.214Z,27.00
2018-07-12T14:27:35.366Z,26.98
2018-07-12T14:30:03.930Z,27.01
2018-07-12T14:32:33.219Z,26.97
2018-07-12T14:35:01.804Z,26.98
2018-07-12T14:37:55.665Z,26.99
2018-07-12T14:40:24.253Z,27.07
2018-07-12T14:42:52.823Z,27.12
2018-07-12T14:45:23.094Z,27.27
2018-07-12T14:47:51.715Z,27.90
2018-07-12T14:50:20.222Z,27.95
2018-07-12T14:52:48.834Z,27.56
2018-07-12T14:55:17.376Z,27.52
2018-07-12T14:57:45.845Z,27.57
2018-07-12T15:00:14.313Z,27.48
2018-07-12T15:02:42.912Z,27.90
2018-07-12T15:05:11.434Z,28.46
2018-07-12T15:07:39.975Z,28.85
2018-07-12T15:10:08.464Z,28.76
2018-07-12T15:12:37.018Z,28.86
2018-07-12T15:15:05.895Z,29.25
2018-07-12T15:17:34.350Z,29.45
2018-07-12T15:20:02.897Z,29.63
2018-07-12T15:22:31.399Z,29.78
2018-07-12T15:24:59.983Z,30.00
2018-07-12T15:27:28.573Z,29.68
2018-07-12T15:29:57.524Z,29.25
2018-07-12T15:32:26.645Z,29.04
2018-07-12T15:34:55.380Z,28.97
2018-07-12T15:37:24.424Z,28.70
2018-07-12T15:39:53.273Z,28.33
2018-07-12T15:42:22.218Z,28.15
2018-07-12T15:44:51.285Z,28.29
2018-07-12T15:47:20.686Z,28.26
2018-07-12T15:49:49.721Z,27.91
2018-07-12T15:52:19.147Z,28.00
2018-07-12T15:54:48.649Z,27.96
2018-07-12T15:57:17.197Z,27.77
2018-07-12T15:59:46.581Z,27.55
2018-07-12T16:02:18.745Z,27.48
2018-07-12T16:04:48.259Z,27.42
2018-07-12T16:07:16.868Z,27.30
2018-07-12T16:09:46.252Z,27.36
2018-07-12T16:12:14.671Z,27.38
2018-07-12T16:14:43.113Z,27.39
2018-07-12T16:17:11.590Z,27.44
2018-07-12T16:19:40.167Z,27.65
2018-07-12T16:22:08.645Z,27.86
2018-07-12T16:24:37.250Z,28.27
2018-07-12T16:27:06.858Z,28.40
2018-07-12T16:29:35.358Z,28.36
2018-07-12T16:32:03.928Z,28.30
2018-07-12T16:34:32.665Z,28.28
2018-07-12T16:37:01.493Z,28.40
2018-07-12T16:39:29.969Z,28.87
2018-07-12T16:41:58.561Z,28.96
2018-07-12T16:44:26.973Z,29.20
2018-07-12T16:46:55.553Z,29.68
2018-07-12T16:49:23.988Z,29.90
2018-07-12T16:51:52.521Z,29.85
2018-07-12T16:54:21.054Z,29.76
2018-07-12T16:56:49.543Z,29.54
2018-07-12T16:59:18.682Z,29.29
2018-07-12T17:01:47.302Z,29.31
2018-07-12T17:04:15.892Z,29.37
2018-07-12T17:06:44.474Z,29.23
2018-07-12T17:09:13.075Z,29.36
2018-07-12T17:11:41.660Z,29.50
2018-07-12T17:14:10.195Z,29.57
2018-07-12T17:16:38.708Z,29.54
2018-07-12T17:19:07.195Z,29.68
2018-07-12T17:21:35.679Z,29.56
2018-07-12T17:24:04.194Z,29.25
2018-07-12T17:26:32.736Z,29.05
2018-07-12T17:29:01.373Z,29.25
2018-07-12T17:31:29.973Z,29.30
2018-07-12T17:33:58.400Z,29.39
2018-07-12T17:36:26.874Z,29.61
2018-07-12T17:38:55.360Z,29.78
2018-07-12T17:41:23.906Z,29.61
2018-07-12T17:43:52.411Z,29.52
2018-07-12T17:46:21.582Z,29.41
2018-07-12T17:48:50.074Z,29.12
2018-07-12T17:51:18.576Z,28.97
2018-07-12T17:53:47.056Z,28.79
2018-07-12T17:56:15.680Z,28.67
2018-07-12T17:58:44.265Z,28.36
2018-07-12T18:01:12.703Z,28.03
2018-07-12T18:03:41.201Z,27.87
2018-07-12T18:06:10.201Z,27.71
2018-07-12T18:08:38.735Z,27.48
2018-07-12T18:11:07.246Z,27.17
2018-07-12T18:13:35.716Z,26.89
2018-07-12T18:16:04.299Z,26.68
2018-07-12T18:18:32.801Z,26.46
2018-07-12T18:21:01.278Z,26.30
2018-07-12T18:23:29.744Z,26.10
2018-07-12T18:25:58.877Z,25.96
2018-07-12T18:28:27.377Z,25.84
2018-07-12T18:30:55.902Z,25.74
2018-07-12T18:33:24.376Z,25.60
2018-07-12T18:35:52.839Z,25.39
2018-07-12T18:38:21.378Z,25.29
2018-07-12T18:40:50.037Z,25.18
2018-07-12T18:43:18.524Z,25.07
2018-07-12T18:45:47.097Z,24.98
2018-07-12T18:48:15.800Z,24.86
2018-07-12T18:50:44.273Z,24.77
2018-07-12T18:53:12.746Z,24.68
2018-07-12T18:55:41.215Z,24.58
2018-07-12T18:58:11.950Z,24.50
2018-07-12T19:00:40.446Z,24.42
2018-07-12T19:03:08.926Z,24.33
2018-07-12T19:05:37.464Z,24.22
2018-07-12T19:08:06.209Z,24.14
2018-07-12T19:10:34.690Z,24.07
2018-07-12T19:13:03.226Z,23.98
2018-07-12T19:15:31.757Z,23.88
2018-07-12T19:18:00.329Z,23.80
2018-07-12T19:20:28.858Z,23.72
2018-07-12T19:22:57.493Z,23.65
2018-07-12T19:25:25.985Z,23.56
2018-07-12T19:27:54.489Z,23.47
2018-07-12T19:30:23.143Z,23.36
2018-07-12T19:32:51.641Z,23.27
2018-07-12T19:35:20.161Z,23.19
2018-07-12T19:37:48.604Z,23.11
2018-07-12T19:40:17.110Z,23.02
2018-07-12T19:42:45.714Z,22.93
2018-07-12T19:45:14.235Z,22.85
2018-07-12T19:47:42.703Z,22.75
2018-07-12T19:50:11.167Z,22.59
2018-07-12T19:52:39.616Z,22.49
2018-07-12T19:55:08.041Z,22.38
2018-07-12T19:57:36.631Z,22.31
2018-07-12T20:00:05.359Z,22.24
2018-07-12T20:02:35.057Z,22.17
2018-07-12T20:05:03.674Z,22.10
2018-07-12T20:07:32.113Z,22.03
2018-07-12T20:10:00.575Z,21.96
2018-07-12T20:12:29.082Z,21.89
2018-07-12T20:14:58.033Z,21.82
2018-07-12T20:17:26.585Z,21.71
2018-07-12T20:19:55.251Z,21.59
2018-07-12T20:22:23.735Z,21.55
2018-07-12T20:24:52.211Z,21.53
2018-07-12T20:27:20.831Z,21.47
2018-07-12T20:29:57.322Z,21.34
2018-07-12T20:32:26.126Z,21.29
2018-07-12T20:34:54.685Z,21.27
2018-07-12T20:37:23.378Z,21.23
2018-07-12T20:39:51.949Z,21.18
2018-07-12T20:42:20.556Z,21.10
2018-07-12T20:44:49.234Z,21.06
2018-07-12T20:47:17.772Z,21.01
2018-07-12T20:49:46.340Z,20.94
2018-07-12T20:52:14.842Z,20.88
2018-07-12T20:54:43.532Z,20.82
2018-07-12T20:57:24.487Z,20.80
2018-07-12T20:59:53.073Z,20.73
2018-07-12T21:02:23.343Z,20.71
2018-07-12T21:04:52.011Z,20.65
2018-07-12T21:07:20.709Z,20.63
2018-07-12T21:09:49.370Z,20.57
2018-07-12T21:12:18.428Z,20.51
2018-07-12T21:14:46.954Z,20.44
2018-07-12T21:17:15.722Z,20.37
2018-07-12T21:19:44.267Z,20.32
2018-07-12T21:22:14.328Z,20.26
2018-07-12T21:24:42.929Z,20.18
2018-07-12T21:27:11.489Z,20.12
2018-07-12T21:29:39.941Z,20.03
2018-07-12T21:32:08.441Z,19.95
2018-07-12T21:34:36.925Z,19.88
2018-07-12T21:37:05.504Z,19.81
2018-07-12T21:39:34.005Z,19.76
2018-07-12T21:42:02.631Z,19.67
2018-07-12T21:44:31.343Z,19.59
2018-07-12T21:47:00.068Z,19.56
2018-07-12T21:49:28.601Z,19.46
2018-07-12T21:51:57.200Z,19.43
2018-07-12T21:54:25.728Z,19.37
2018-07-12T21:56:54.303Z,19.34
2018-07-12T21:59:22.782Z,19.32
2018-07-12T22:01:51.304Z,19.29
2018-07-12T22:04:19.872Z,19.27
2018-07-12T22:07:29.795Z,19.22
2018-07-12T22:10:01.019Z,19.06
2018-07-12T22:12:32.379Z,18.99
2018-07-12T22:15:03.581Z,18.92
2018-07-12T22:17:34.682Z,18.84
2018-07-12T22:20:06.202Z,18.59
2018-07-12T22:22:39.612Z,18.51
2018-07-12T22:25:10.278Z,18.48
2018-07-12T22:27:41.487Z,18.49
2018-07-12T22:30:12.477Z,18.51
2018-07-12T22:32:43.029Z,18.50
2018-07-12T22:35:14.879Z,18.47
2018-07-12T22:37:45.989Z,18.43
2018-07-12T22:40:16.295Z,18.41
2018-07-12T22:42:46.722Z,18.38
2018-07-12T22:45:17.812Z,18.32
2018-07-12T22:47:48.449Z,18.29
2018-07-12T22:50:19.791Z,18.27
2018-07-12T22:52:50.801Z,18.24
2018-07-12T22:55:22.159Z,18.16
2018-07-12T22:57:53.545Z,18.11
2018-07-12T23:00:24.404Z,18.06
2018-07-12T23:02:55.618Z,18.06
2018-07-12T23:05:26.608Z,18.05
2018-07-12T23:07:58.014Z,18.02
2018-07-12T23:10:28.504Z,17.97
2018-07-12T23:13:01.408Z,17.93
2018-07-12T23:15:32.712Z,17.86
2018-07-12T23:18:03.299Z,17.81
2018-07-12T23:20:34.207Z,17.73
2018-07-12T23:23:05.346Z,17.68
2018-07-12T23:25:37.040Z,17.65
2018-07-12T23:28:08.043Z,17.63
2018-07-12T23:30:39.412Z,17.60
2018-07-12T23:33:11.090Z,17.57
2018-07-12T23:35:45.823Z,17.53
2018-07-12T23:38:16.802Z,17.50
2018-07-12T23:40:49.186Z,17.39
2018-07-12T23:43:20.580Z,17.32
2018-07-12T23:45:51.629Z,17.27
2018-07-12T23:48:22.975Z,17.15
2018-07-12T23:50:54.248Z,17.05
2018-07-12T23:53:25.396Z,16.93
2018-07-12T23:55:56.678Z,16.85
2018-07-12T23:58:27.854Z,16.79
